sensor_id;sensor_type;location;lat;lon;timestamp;pressure;altitude;pressure_sealevel;temperature;humidity
65190;BME280;51777;53.570;9.984;2023-07-20T00:02:19;100952.75;;;14.99;100.00
65190;BME280;51777;53.570;9.984;2023-07-20T00:04:44;100946.06;;;15.05;100.00
65190;BME280;51777;53.570;9.984;2023-07-20T00:07:09;100940.78;;;15.13;100.00
65190;BME280;51777;53.570;9.984;2023-07-20T00:09:35;100949.38;;;15.21;100.00
65190;BME280;51777;53.570;9.984;2023-07-20T00:12:00;100945.47;;;15.25;100.00
65190;BME280;51777;53.570;9.984;2023-07-20T00:14:26;100944.31;;;15.28;100.00
65190;BME280;51777;53.570;9.984;2023-07-20T00:16:51;100941.38;;;15.31;100.00
65190;BME280;51777;53.570;9.984;2023-07-20T00:19:25;100946.06;;;15.36;100.00
65190;BME280;51777;53.570;9.984;2023-07-20T00:21:51;100949.00;;;15.33;100.00
65190;BME280;51777;53.570;9.984;2023-07-20T00:24:17;100946.50;;;15.16;100.00
65190;BME280;51777;53.570;9.984;2023-07-20T00:26:43;100946.69;;;15.07;100.00
65190;BME280;51777;53.570;9.984;2023-07-20T00:29:09;100951.06;;;15.14;100.00
65190;BME280;51777;53.570;9.984;2023-07-20T00:31:35;100948.47;;;15.14;100.00
65190;BME280;51777;53.570;9.984;2023-07-20T00:34:02;100949.13;;;15.08;100.00
65190;BME280;51777;53.570;9.984;2023-07-20T00:36:28;100954.34;;;15.08;100.00
65190;BME280;51777;53.570;9.984;2023-07-20T00:38:53;100946.50;;;15.16;100.00
65190;BME280;51777;53.570;9.984;2023-07-20T00:41:19;100954.94;;;15.18;100.00
65190;BME280;51777;53.570;9.984;2023-07-20T00:43:44;100946.31;;;15.18;100.00
65190;BME280;51777;53.570;9.984;2023-07-20T00:46:09;100946.59;;;15.23;100.00
65190;BME280;51777;53.570;9.984;2023-07-20T00:48:36;100947.91;;;15.27;100.00
65190;BME280;51777;53.570;9.984;2023-07-20T00:51:02;100953.06;;;15.35;100.00
65190;BME280;51777;53.570;9.984;2023-07-20T00:53:27;100954.75;;;15.28;100.00
65190;BME280;51777;53.570;9.984;2023-07-20T00:55:53;100948.09;;;15.25;100.00
65190;BME280;51777;53.570;9.984;2023-07-20T00:58:19;100947.25;;;15.25;100.00
65190;BME280;51777;53.570;9.984;2023-07-20T01:00:45;100951.34;;;15.19;100.00
65190;BME280;51777;53.570;9.984;2023-07-20T01:03:12;100946.00;;;15.13;100.00
65190;BME280;51777;53.570;9.984;2023-07-20T01:05:44;100936.75;;;15.10;100.00
65190;BME280;51777;53.570;9.984;2023-07-20T01:09:02;100941.84;;;14.95;100.00
65190;BME280;51777;53.570;9.984;2023-07-20T01:13:57;100940.31;;;14.70;100.00
65190;BME280;51777;53.570;9.984;2023-07-20T01:16:23;100940.13;;;14.80;100.00
65190;BME280;51777;53.570;9.984;2023-07-20T01:18:49;100949.63;;;14.64;100.00
65190;BME280;51777;53.570;9.984;2023-07-20T01:21:21;100943.09;;;14.68;100.00
65190;BME280;51777;53.570;9.984;2023-07-20T01:31:46;100948.00;;;14.63;100.00
65190;BME280;51777;53.570;9.984;2023-07-20T01:34:17;100944.09;;;14.59;100.00
65190;BME280;51777;53.570;9.984;2023-07-20T01:36:44;100937.09;;;14.60;100.00
65190;BME280;51777;53.570;9.984;2023-07-20T01:39:11;100938.22;;;14.65;100.00
65190;BME280;51777;53.570;9.984;2023-07-20T01:41:37;100929.72;;;14.72;100.00
65190;BME280;51777;53.570;9.984;2023-07-20T01:44:03;100939.16;;;14.73;100.00
65190;BME280;51777;53.570;9.984;2023-07-20T01:46:29;100929.56;;;14.73;100.00
65190;BME280;51777;53.570;9.984;2023-07-20T01:48:54;100933.13;;;14.80;100.00
65190;BME280;51777;53.570;9.984;2023-07-20T01:51:20;100933.31;;;14.79;100.00
65190;BME280;51777;53.570;9.984;2023-07-20T01:53:45;100932.97;;;14.82;100.00
65190;BME280;51777;53.570;9.984;2023-07-20T01:56:11;100926.50;;;14.69;100.00
65190;BME280;51777;53.570;9.984;2023-07-20T01:58:37;100924.72;;;14.62;100.00
65190;BME280;51777;53.570;9.984;2023-07-20T02:01:03;100933.84;;;14.58;100.00
65190;BME280;51777;53.570;9.984;2023-07-20T02:03:28;100931.25;;;14.50;100.00
65190;BME280;51777;53.570;9.984;2023-07-20T02:05:54;100934.31;;;14.61;100.00
65190;BME280;51777;53.570;9.984;2023-07-20T02:08:19;100934.47;;;14.68;100.00
65190;BME280;51777;53.570;9.984;2023-07-20T02:10:46;100941.44;;;14.76;100.00
65190;BME280;51777;53.570;9.984;2023-07-20T02:13:12;100934.28;;;14.78;100.00
65190;BME280;51777;53.570;9.984;2023-07-20T02:15:37;100939.84;;;14.66;100.00
65190;BME280;51777;53.570;9.984;2023-07-20T02:18:03;100947.00;;;14.64;100.00
65190;BME280;51777;53.570;9.984;2023-07-20T02:20:28;100937.28;;;14.42;100.00
65190;BME280;51777;53.570;9.984;2023-07-20T02:22:54;100942.13;;;14.37;100.00
65190;BME280;51777;53.570;9.984;2023-07-20T02:25:19;100941.50;;;14.43;100.00
65190;BME280;51777;53.570;9.984;2023-07-20T02:27:45;100947.84;;;14.40;100.00
65190;BME280;51777;53.570;9.984;2023-07-20T02:30:10;100935.16;;;14.46;100.00
65190;BME280;51777;53.570;9.984;2023-07-20T02:32:36;100944.41;;;14.56;100.00
65190;BME280;51777;53.570;9.984;2023-07-20T02:35:02;100941.13;;;14.62;100.00
65190;BME280;51777;53.570;9.984;2023-07-20T02:37:29;100948.47;;;14.59;100.00
65190;BME280;51777;53.570;9.984;2023-07-20T02:39:54;100950.75;;;14.62;100.00
65190;BME280;51777;53.570;9.984;2023-07-20T02:42:20;100954.50;;;14.59;100.00
65190;BME280;51777;53.570;9.984;2023-07-20T02:44:48;100951.94;;;14.51;100.00
65190;BME280;51777;53.570;9.984;2023-07-20T02:47:13;100953.69;;;14.51;100.00
65190;BME280;51777;53.570;9.984;2023-07-20T02:49:39;100952.88;;;14.58;100.00
65190;BME280;51777;53.570;9.984;2023-07-20T02:52:04;100954.97;;;14.63;100.00
65190;BME280;51777;53.570;9.984;2023-07-20T02:54:30;100947.31;;;14.61;100.00
65190;BME280;51777;53.570;9.984;2023-07-20T02:56:56;100944.56;;;14.63;100.00
65190;BME280;51777;53.570;9.984;2023-07-20T02:59:21;100942.13;;;14.61;100.00
65190;BME280;51777;53.570;9.984;2023-07-20T03:01:47;100946.34;;;14.62;100.00
65190;BME280;51777;53.570;9.984;2023-07-20T03:04:12;100948.63;;;14.65;100.00
65190;BME280;51777;53.570;9.984;2023-07-20T03:06:38;100954.31;;;14.69;100.00
65190;BME280;51777;53.570;9.984;2023-07-20T03:09:04;100948.13;;;14.62;100.00
65190;BME280;51777;53.570;9.984;2023-07-20T03:11:30;100955.31;;;14.60;100.00
65190;BME280;51777;53.570;9.984;2023-07-20T03:13:55;100950.44;;;14.57;100.00
65190;BME280;51777;53.570;9.984;2023-07-20T03:16:23;100959.88;;;14.50;100.00
65190;BME280;51777;53.570;9.984;2023-07-20T03:18:48;100962.31;;;14.43;100.00
65190;BME280;51777;53.570;9.984;2023-07-20T03:21:14;100958.91;;;14.34;100.00
65190;BME280;51777;53.570;9.984;2023-07-20T03:23:40;100958.94;;;14.26;100.00
65190;BME280;51777;53.570;9.984;2023-07-20T03:26:06;100960.69;;;14.34;100.00
65190;BME280;51777;53.570;9.984;2023-07-20T03:28:34;100965.88;;;14.42;100.00
65190;BME280;51777;53.570;9.984;2023-07-20T03:30:59;100964.25;;;14.41;100.00
65190;BME280;51777;53.570;9.984;2023-07-20T03:33:26;100968.19;;;14.29;100.00
65190;BME280;51777;53.570;9.984;2023-07-20T03:35:53;100963.94;;;14.36;100.00
65190;BME280;51777;53.570;9.984;2023-07-20T03:38:18;100962.31;;;14.35;100.00
65190;BME280;51777;53.570;9.984;2023-07-20T03:40:54;100958.25;;;14.32;100.00
65190;BME280;51777;53.570;9.984;2023-07-20T03:43:20;100961.97;;;14.38;100.00
65190;BME280;51777;53.570;9.984;2023-07-20T03:45:46;100967.50;;;14.35;100.00
65190;BME280;51777;53.570;9.984;2023-07-20T03:48:13;100958.41;;;14.39;100.00
65190;BME280;51777;53.570;9.984;2023-07-20T03:50:38;100962.63;;;14.48;100.00
65190;BME280;51777;53.570;9.984;2023-07-20T03:53:03;100961.34;;;14.52;100.00
65190;BME280;51777;53.570;9.984;2023-07-20T03:55:29;100962.97;;;14.53;100.00
65190;BME280;51777;53.570;9.984;2023-07-20T03:57:54;100963.63;;;14.55;100.00
65190;BME280;51777;53.570;9.984;2023-07-20T04:00:20;100968.81;;;14.55;100.00
65190;BME280;51777;53.570;9.984;2023-07-20T04:02:45;100963.28;;;14.58;100.00
65190;BME280;51777;53.570;9.984;2023-07-20T04:05:11;100968.16;;;14.61;100.00
65190;BME280;51777;53.570;9.984;2023-07-20T04:07:36;100972.69;;;14.67;100.00
65190;BME280;51777;53.570;9.984;2023-07-20T04:10:02;100968.81;;;14.63;100.00
65190;BME280;51777;53.570;9.984;2023-07-20T04:12:27;100972.88;;;14.66;100.00
65190;BME280;51777;53.570;9.984;2023-07-20T04:14:53;100976.94;;;14.68;100.00
65190;BME280;51777;53.570;9.984;2023-07-20T04:17:18;100978.53;;;14.69;100.00
65190;BME280;51777;53.570;9.984;2023-07-20T04:19:44;100975.94;;;14.69;100.00
65190;BME280;51777;53.570;9.984;2023-07-20T04:22:09;100984.06;;;14.75;100.00
65190;BME280;51777;53.570;9.984;2023-07-20T04:24:35;100989.25;;;14.75;100.00
65190;BME280;51777;53.570;9.984;2023-07-20T04:27:01;100986.19;;;14.79;100.00
65190;BME280;51777;53.570;9.984;2023-07-20T04:29:27;100987.16;;;14.70;100.00
65190;BME280;51777;53.570;9.984;2023-07-20T04:31:52;100985.53;;;14.77;100.00
65190;BME280;51777;53.570;9.984;2023-07-20T04:34:17;100983.59;;;14.71;100.00
65190;BME280;51777;53.570;9.984;2023-07-20T04:36:43;100982.44;;;14.74;100.00
65190;BME280;51777;53.570;9.984;2023-07-20T04:39:10;100985.38;;;14.79;100.00
65190;BME280;51777;53.570;9.984;2023-07-20T04:41:36;100986.19;;;14.79;100.00
65190;BME280;51777;53.570;9.984;2023-07-20T04:44:01;100982.41;;;14.82;100.00
65190;BME280;51777;53.570;9.984;2023-07-20T04:46:27;100984.22;;;14.81;100.00
65190;BME280;51777;53.570;9.984;2023-07-20T04:48:52;100987.47;;;14.75;100.00
65190;BME280;51777;53.570;9.984;2023-07-20T04:51:17;100991.06;;;14.74;100.00
65190;BME280;51777;53.570;9.984;2023-07-20T04:53:47;100981.09;;;14.86;100.00
65190;BME280;51777;53.570;9.984;2023-07-20T04:56:14;100983.69;;;14.86;100.00
65190;BME280;51777;53.570;9.984;2023-07-20T04:58:39;100985.03;;;14.82;100.00
65190;BME280;51777;53.570;9.984;2023-07-20T05:01:04;100986.00;;;14.81;100.00
65190;BME280;51777;53.570;9.984;2023-07-20T05:03:30;100986.00;;;14.89;100.00
65190;BME280;51777;53.570;9.984;2023-07-20T05:05:55;100982.34;;;14.98;100.00
65190;BME280;51777;53.570;9.984;2023-07-20T05:08:20;100985.59;;;15.08;100.00
65190;BME280;51777;53.570;9.984;2023-07-20T05:10:47;100984.13;;;15.14;100.00
65190;BME280;51777;53.570;9.984;2023-07-20T05:13:13;100980.38;;;15.08;100.00
65190;BME280;51777;53.570;9.984;2023-07-20T05:15:38;100986.66;;;15.22;100.00
65190;BME280;51777;53.570;9.984;2023-07-20T05:18:03;100984.69;;;15.24;100.00
65190;BME280;51777;53.570;9.984;2023-07-20T05:20:29;100989.28;;;15.22;100.00
65190;BME280;51777;53.570;9.984;2023-07-20T05:22:57;100987.16;;;15.25;100.00
65190;BME280;51777;53.570;9.984;2023-07-20T05:25:22;100991.81;;;15.38;100.00
65190;BME280;51777;53.570;9.984;2023-07-20T05:27:48;100980.69;;;15.44;100.00
65190;BME280;51777;53.570;9.984;2023-07-20T05:30:13;100986.88;;;15.51;100.00
65190;BME280;51777;53.570;9.984;2023-07-20T05:32:38;100989.28;;;15.53;100.00
65190;BME280;51777;53.570;9.984;2023-07-20T05:35:04;100982.56;;;15.58;100.00
65190;BME280;51777;53.570;9.984;2023-07-20T05:37:30;100988.94;;;15.64;100.00
65190;BME280;51777;53.570;9.984;2023-07-20T05:39:55;100988.94;;;15.56;100.00
65190;BME280;51777;53.570;9.984;2023-07-20T05:42:21;100998.22;;;15.58;100.00
65190;BME280;51777;53.570;9.984;2023-07-20T05:44:46;100990.59;;;15.49;100.00
65190;BME280;51777;53.570;9.984;2023-07-20T05:47:13;100993.38;;;15.47;100.00
65190;BME280;51777;53.570;9.984;2023-07-20T05:49:38;100990.47;;;15.50;100.00
65190;BME280;51777;53.570;9.984;2023-07-20T05:52:04;100991.28;;;15.43;100.00
65190;BME280;51777;53.570;9.984;2023-07-20T05:54:29;100992.88;;;15.52;100.00
65190;BME280;51777;53.570;9.984;2023-07-20T05:56:55;100994.34;;;15.54;100.00
65190;BME280;51777;53.570;9.984;2023-07-20T05:59:20;101000.19;;;15.65;100.00
65190;BME280;51777;53.570;9.984;2023-07-20T06:01:46;100993.81;;;15.67;100.00
65190;BME280;51777;53.570;9.984;2023-07-20T06:04:14;100999.28;;;15.72;100.00
65190;BME280;51777;53.570;9.984;2023-07-20T06:06:40;100994.31;;;15.85;100.00
65190;BME280;51777;53.570;9.984;2023-07-20T06:09:05;101003.72;;;15.95;100.00
65190;BME280;51777;53.570;9.984;2023-07-20T06:11:35;101006.09;;;15.81;100.00
65190;BME280;51777;53.570;9.984;2023-07-20T06:14:00;101001.97;;;15.87;100.00
65190;BME280;51777;53.570;9.984;2023-07-20T06:16:25;101003.34;;;15.98;100.00
65190;BME280;51777;53.570;9.984;2023-07-20T06:18:51;101007.31;;;15.94;100.00
65190;BME280;51777;53.570;9.984;2023-07-20T06:21:16;101005.28;;;16.04;100.00
65190;BME280;51777;53.570;9.984;2023-07-20T06:23:41;101006.13;;;16.19;100.00
65190;BME280;51777;53.570;9.984;2023-07-20T06:26:07;101014.22;;;16.47;100.00
65190;BME280;51777;53.570;9.984;2023-07-20T06:28:33;101016.00;;;16.84;100.00
65190;BME280;51777;53.570;9.984;2023-07-20T06:31:02;101019.25;;;17.01;100.00
65190;BME280;51777;53.570;9.984;2023-07-20T06:33:27;101027.88;;;17.31;100.00
65190;BME280;51777;53.570;9.984;2023-07-20T06:35:53;101023.94;;;17.56;100.00
65190;BME280;51777;53.570;9.984;2023-07-20T06:38:19;101030.50;;;17.67;100.00
65190;BME280;51777;53.570;9.984;2023-07-20T06:40:48;101027.75;;;17.54;100.00
65190;BME280;51777;53.570;9.984;2023-07-20T06:43:13;101022.69;;;17.16;100.00
65190;BME280;51777;53.570;9.984;2023-07-20T06:45:39;101019.41;;;17.29;100.00
65190;BME280;51777;53.570;9.984;2023-07-20T06:48:04;101027.41;;;17.42;100.00
65190;BME280;51777;53.570;9.984;2023-07-20T06:50:29;101023.84;;;17.28;100.00
65190;BME280;51777;53.570;9.984;2023-07-20T06:52:55;101019.78;;;17.26;100.00
65190;BME280;51777;53.570;9.984;2023-07-20T06:55:20;101028.25;;;17.28;100.00
65190;BME280;51777;53.570;9.984;2023-07-20T06:57:46;101030.31;;;17.18;100.00
65190;BME280;51777;53.570;9.984;2023-07-20T07:00:12;101037.44;;;16.94;100.00
65190;BME280;51777;53.570;9.984;2023-07-20T07:02:38;101022.31;;;16.75;100.00
65190;BME280;51777;53.570;9.984;2023-07-20T07:05:04;101025.63;;;16.98;100.00
65190;BME280;51777;53.570;9.984;2023-07-20T07:07:29;101019.78;;;17.26;100.00
65190;BME280;51777;53.570;9.984;2023-07-20T07:09:55;101022.34;;;17.55;100.00
65190;BME280;51777;53.570;9.984;2023-07-20T07:12:20;101019.66;;;17.85;100.00
65190;BME280;51777;53.570;9.984;2023-07-20T07:14:45;101030.38;;;17.90;100.00
65190;BME280;51777;53.570;9.984;2023-07-20T07:17:11;101028.28;;;18.00;100.00
65190;BME280;51777;53.570;9.984;2023-07-20T07:19:36;101026.47;;;18.01;100.00
65190;BME280;51777;53.570;9.984;2023-07-20T07:22:04;101029.50;;;17.83;100.00
65190;BME280;51777;53.570;9.984;2023-07-20T07:24:29;101027.66;;;17.62;100.00
65190;BME280;51777;53.570;9.984;2023-07-20T07:26:59;101028.97;;;17.87;100.00
65190;BME280;51777;53.570;9.984;2023-07-20T07:29:25;101029.00;;;17.94;100.00
65190;BME280;51777;53.570;9.984;2023-07-20T07:31:51;101024.16;;;18.12;100.00
65190;BME280;51777;53.570;9.984;2023-07-20T07:34:17;101031.53;;;18.52;100.00
65190;BME280;51777;53.570;9.984;2023-07-20T07:36:43;101028.22;;;18.43;100.00
65190;BME280;51777;53.570;9.984;2023-07-20T07:39:10;101034.66;;;17.98;100.00
65190;BME280;51777;53.570;9.984;2023-07-20T07:41:36;101030.56;;;17.88;100.00
65190;BME280;51777;53.570;9.984;2023-07-20T07:44:01;101044.09;;;17.92;100.00
65190;BME280;51777;53.570;9.984;2023-07-20T07:46:27;101040.72;;;17.98;100.00
65190;BME280;51777;53.570;9.984;2023-07-20T07:48:52;101040.97;;;18.03;100.00
65190;BME280;51777;53.570;9.984;2023-07-20T07:51:18;101045.69;;;17.93;100.00
65190;BME280;51777;53.570;9.984;2023-07-20T07:53:44;101043.84;;;17.87;100.00
65190;BME280;51777;53.570;9.984;2023-07-20T07:56:09;101046.28;;;17.88;100.00
65190;BME280;51777;53.570;9.984;2023-07-20T07:58:34;101052.81;;;18.20;100.00
65190;BME280;51777;53.570;9.984;2023-07-20T08:01:00;101050.94;;;18.36;100.00
65190;BME280;51777;53.570;9.984;2023-07-20T08:03:26;101054.91;;;18.32;100.00
65190;BME280;51777;53.570;9.984;2023-07-20T08:05:56;101058.66;;;18.23;100.00
65190;BME280;51777;53.570;9.984;2023-07-20T08:08:22;101055.38;;;18.63;100.00
65190;BME280;51777;53.570;9.984;2023-07-20T08:10:48;101062.06;;;19.76;100.00
65190;BME280;51777;53.570;9.984;2023-07-20T08:13:14;101074.22;;;24.32;100.00
65190;BME280;51777;53.570;9.984;2023-07-20T08:15:48;101073.69;;;21.97;100.00
65190;BME280;51777;53.570;9.984;2023-07-20T08:18:14;101077.66;;;23.06;100.00
65190;BME280;51777;53.570;9.984;2023-07-20T08:20:43;101081.56;;;24.00;100.00
65190;BME280;51777;53.570;9.984;2023-07-20T08:23:09;101096.41;;;26.10;100.00
65190;BME280;51777;53.570;9.984;2023-07-20T08:25:36;101092.38;;;25.51;100.00
65190;BME280;51777;53.570;9.984;2023-07-20T08:28:04;101097.72;;;27.35;100.00
65190;BME280;51777;53.570;9.984;2023-07-20T08:30:46;101103.66;;;28.23;100.00
65190;BME280;51777;53.570;9.984;2023-07-20T08:33:17;101098.16;;;28.03;100.00
65190;BME280;51777;53.570;9.984;2023-07-20T08:35:46;101109.00;;;29.86;100.00
65190;BME280;51777;53.570;9.984;2023-07-20T08:38:12;101130.78;;;31.79;100.00
65190;BME280;51777;53.570;9.984;2023-07-20T08:40:42;101118.88;;;29.07;100.00
65190;BME280;51777;53.570;9.984;2023-07-20T08:43:09;101108.63;;;26.78;100.00
65190;BME280;51777;53.570;9.984;2023-07-20T08:45:36;101098.28;;;24.24;100.00
65190;BME280;51777;53.570;9.984;2023-07-20T08:48:05;101101.22;;;22.82;100.00
65190;BME280;51777;53.570;9.984;2023-07-20T08:50:33;101091.75;;;21.42;100.00
65190;BME280;51777;53.570;9.984;2023-07-20T08:53:00;101080.16;;;20.65;100.00
65190;BME280;51777;53.570;9.984;2023-07-20T08:55:28;101080.31;;;20.17;100.00
65190;BME280;51777;53.570;9.984;2023-07-20T08:57:55;101096.75;;;23.56;100.00
65190;BME280;51777;53.570;9.984;2023-07-20T09:00:22;101112.56;;;26.76;100.00
65190;BME280;51777;53.570;9.984;2023-07-20T09:02:49;101117.00;;;29.70;100.00
65190;BME280;51777;53.570;9.984;2023-07-20T09:05:16;101131.59;;;31.10;100.00
65190;BME280;51777;53.570;9.984;2023-07-20T09:07:43;101140.13;;;31.27;100.00
65190;BME280;51777;53.570;9.984;2023-07-20T09:10:09;101130.94;;;30.08;100.00
65190;BME280;51777;53.570;9.984;2023-07-20T09:12:37;101123.16;;;29.96;100.00
65190;BME280;51777;53.570;9.984;2023-07-20T09:15:03;101131.47;;;30.56;100.00
65190;BME280;51777;53.570;9.984;2023-07-20T09:17:29;101104.91;;;28.43;100.00
65190;BME280;51777;53.570;9.984;2023-07-20T09:19:54;101115.91;;;29.61;100.00
65190;BME280;51777;53.570;9.984;2023-07-20T09:22:20;101114.88;;;28.62;100.00
65190;BME280;51777;53.570;9.984;2023-07-20T09:24:46;101107.97;;;26.88;100.00
65190;BME280;51777;53.570;9.984;2023-07-20T09:27:11;101106.66;;;25.09;100.00
65190;BME280;51777;53.570;9.984;2023-07-20T09:29:52;101111.44;;;22.72;100.00
65190;BME280;51777;53.570;9.984;2023-07-20T09:32:21;101105.56;;;21.18;100.00
65190;BME280;51777;53.570;9.984;2023-07-20T09:34:48;101110.47;;;20.81;100.00
65190;BME280;51777;53.570;9.984;2023-07-20T09:37:20;101109.69;;;20.61;100.00
65190;BME280;51777;53.570;9.984;2023-07-20T09:39:46;101108.81;;;20.40;100.00
65190;BME280;51777;53.570;9.984;2023-07-20T09:42:12;101099.94;;;20.35;100.00
65190;BME280;51777;53.570;9.984;2023-07-20T09:44:44;101108.44;;;20.43;100.00
65190;BME280;51777;53.570;9.984;2023-07-20T09:47:10;101115.47;;;23.18;100.00
65190;BME280;51777;53.570;9.984;2023-07-20T09:49:42;101120.34;;;24.83;100.00
65190;BME280;51777;53.570;9.984;2023-07-20T09:52:11;101125.59;;;26.77;100.00
65190;BME280;51777;53.570;9.984;2023-07-20T09:54:40;101141.72;;;28.98;100.00
65190;BME280;51777;53.570;9.984;2023-07-20T09:57:07;101144.53;;;30.37;100.00
65190;BME280;51777;53.570;9.984;2023-07-20T09:59:33;101146.69;;;30.30;100.00
65190;BME280;51777;53.570;9.984;2023-07-20T10:02:01;101151.69;;;30.97;100.00
65190;BME280;51777;53.570;9.984;2023-07-20T10:04:28;101147.75;;;30.24;100.00
65190;BME280;51777;53.570;9.984;2023-07-20T10:06:55;101138.22;;;31.38;100.00
65190;BME280;51777;53.570;9.984;2023-07-20T10:09:24;101138.97;;;30.28;100.00
65190;BME280;51777;53.570;9.984;2023-07-20T10:11:51;101123.19;;;28.71;100.00
65190;BME280;51777;53.570;9.984;2023-07-20T10:14:20;101121.78;;;28.63;100.00
65190;BME280;51777;53.570;9.984;2023-07-20T10:16:58;101113.22;;;27.92;100.00
65190;BME280;51777;53.570;9.984;2023-07-20T10:22:00;101119.47;;;28.35;100.00
65190;BME280;51777;53.570;9.984;2023-07-20T10:24:29;101108.47;;;27.94;100.00
65190;BME280;51777;53.570;9.984;2023-07-20T10:26:56;101109.63;;;27.55;100.00
65190;BME280;51777;53.570;9.984;2023-07-20T10:29:22;101104.78;;;26.19;100.00
65190;BME280;51777;53.570;9.984;2023-07-20T10:31:48;101109.06;;;27.09;100.00
65190;BME280;51777;53.570;9.984;2023-07-20T10:34:14;101111.72;;;27.52;100.00
65190;BME280;51777;53.570;9.984;2023-07-20T10:36:44;101106.22;;;28.82;100.00
65190;BME280;51777;53.570;9.984;2023-07-20T10:39:33;101097.44;;;26.76;100.00
65190;BME280;51777;53.570;9.984;2023-07-20T10:42:07;101098.22;;;25.24;100.00
65190;BME280;51777;53.570;9.984;2023-07-20T10:44:34;101097.91;;;24.74;100.00
65190;BME280;51777;53.570;9.984;2023-07-20T10:47:03;101099.16;;;24.48;100.00
65190;BME280;51777;53.570;9.984;2023-07-20T10:49:34;101108.72;;;26.33;100.00
65190;BME280;51777;53.570;9.984;2023-07-20T10:52:04;101116.34;;;27.84;100.00
65190;BME280;51777;53.570;9.984;2023-07-20T10:56:56;101096.78;;;24.81;100.00
65190;BME280;51777;53.570;9.984;2023-07-20T11:01:55;101097.31;;;23.10;100.00
65190;BME280;51777;53.570;9.984;2023-07-20T11:04:38;101099.63;;;23.73;100.00
65190;BME280;51777;53.570;9.984;2023-07-20T11:07:05;101104.66;;;23.44;100.00
65190;BME280;51777;53.570;9.984;2023-07-20T11:09:34;101111.84;;;22.94;100.00
65190;BME280;51777;53.570;9.984;2023-07-20T11:12:13;101109.88;;;22.40;100.00
65190;BME280;51777;53.570;9.984;2023-07-20T11:14:41;101112.06;;;22.93;100.00
65190;BME280;51777;53.570;9.984;2023-07-20T11:17:15;101124.75;;;22.84;100.00
65190;BME280;51777;53.570;9.984;2023-07-20T11:19:41;101129.38;;;22.82;100.00
65190;BME280;51777;53.570;9.984;2023-07-20T11:22:07;101119.19;;;22.67;100.00
65190;BME280;51777;53.570;9.984;2023-07-20T11:24:34;101126.75;;;22.32;100.00
65190;BME280;51777;53.570;9.984;2023-07-20T11:27:00;101126.94;;;22.62;100.00
65190;BME280;51777;53.570;9.984;2023-07-20T11:29:29;101127.19;;;22.85;100.00
65190;BME280;51777;53.570;9.984;2023-07-20T11:31:56;101122.94;;;22.28;100.00
65190;BME280;51777;53.570;9.984;2023-07-20T11:34:21;101124.09;;;22.32;100.00
65190;BME280;51777;53.570;9.984;2023-07-20T11:36:49;101119.72;;;22.51;100.00
65190;BME280;51777;53.570;9.984;2023-07-20T11:39:16;101109.53;;;22.79;100.00
65190;BME280;51777;53.570;9.984;2023-07-20T11:41:53;101117.88;;;22.83;100.00
65190;BME280;51777;53.570;9.984;2023-07-20T11:44:24;101112.88;;;22.93;100.00
65190;BME280;51777;53.570;9.984;2023-07-20T11:47:07;101107.50;;;23.25;100.00
65190;BME280;51777;53.570;9.984;2023-07-20T11:49:37;101112.81;;;23.55;100.00
65190;BME280;51777;53.570;9.984;2023-07-20T11:52:10;101114.19;;;23.94;100.00
65190;BME280;51777;53.570;9.984;2023-07-20T11:54:39;101126.44;;;23.88;100.00
65190;BME280;51777;53.570;9.984;2023-07-20T11:57:05;101107.50;;;23.91;100.00
65190;BME280;51777;53.570;9.984;2023-07-20T11:59:31;101108.81;;;24.00;100.00
65190;BME280;51777;53.570;9.984;2023-07-20T12:01:58;101116.72;;;24.42;100.00
65190;BME280;51777;53.570;9.984;2023-07-20T12:04:26;101123.78;;;24.60;100.00
65190;BME280;51777;53.570;9.984;2023-07-20T12:06:53;101120.34;;;24.71;100.00
65190;BME280;51777;53.570;9.984;2023-07-20T12:09:19;101116.88;;;24.82;100.00
65190;BME280;51777;53.570;9.984;2023-07-20T12:11:45;101115.97;;;24.88;100.00
65190;BME280;51777;53.570;9.984;2023-07-20T12:14:10;101113.75;;;24.50;100.00
65190;BME280;51777;53.570;9.984;2023-07-20T12:16:37;101115.84;;;24.72;100.00
65190;BME280;51777;53.570;9.984;2023-07-20T12:19:11;101110.66;;;24.77;100.00
65190;BME280;51777;53.570;9.984;2023-07-20T12:21:39;101113.41;;;24.35;100.00
65190;BME280;51777;53.570;9.984;2023-07-20T12:24:05;101113.59;;;23.92;100.00
65190;BME280;51777;53.570;9.984;2023-07-20T12:26:32;101114.31;;;23.51;100.00
65190;BME280;51777;53.570;9.984;2023-07-20T12:28:58;101115.63;;;23.23;100.00
65190;BME280;51777;53.570;9.984;2023-07-20T12:31:25;101120.66;;;22.32;100.00
65190;BME280;51777;53.570;9.984;2023-07-20T12:33:51;101121.66;;;22.06;100.00
65190;BME280;51777;53.570;9.984;2023-07-20T12:36:18;101109.19;;;22.19;100.00
65190;BME280;51777;53.570;9.984;2023-07-20T12:38:44;101105.88;;;22.55;100.00
65190;BME280;51777;53.570;9.984;2023-07-20T12:41:11;101111.03;;;22.69;100.00
65190;BME280;51777;53.570;9.984;2023-07-20T12:43:43;101109.13;;;22.82;100.00
65190;BME280;51777;53.570;9.984;2023-07-20T12:46:09;101107.09;;;22.84;100.00
65190;BME280;51777;53.570;9.984;2023-07-20T12:48:36;101104.03;;;22.63;100.00
65190;BME280;51777;53.570;9.984;2023-07-20T12:51:08;101104.97;;;22.68;100.00
65190;BME280;51777;53.570;9.984;2023-07-20T12:53:33;101113.19;;;22.85;100.00
65190;BME280;51777;53.570;9.984;2023-07-20T12:56:00;101110.13;;;22.81;100.00
65190;BME280;51777;53.570;9.984;2023-07-20T12:58:26;101099.00;;;22.54;100.00